VRMG

Gan International Airport

Gan, Maldives
TAF VRMG 230500Z 2306/2412 01005KT 9999 FEW018 TEMPO 2306/2310 5000 -SHRA FEW018CB
Issued Valid From Valid To
Jan-23 @ 05:00 UTC
(2 hours ago)
Jan-23 @ 06:00 UTC
(an hour ago)
Jan-24 @ 12:00 UTC
(-1 days ago)
Jan-23 @ 06:00 to Jan-24 @ 12:00
TAF VRMG 230500Z 2306/2412 01005KT 9999 FEW018
Wind Visibility Clouds
10° at 5 knots 10,000+ meters
  • Few at 1,800' AGL
Temporary Jan-23 @ 06:00 to Jan-23 @ 10:00
TEMPO 2306/2310 5000 -SHRA FEW018CB
Visibility Clouds Conditions
5,005 meters
  • Few at 1,800' AGL
  • Light Rain
TAF VRMG 230500Z 2306/2412 01005KT 9999 FEW018 TEMPO 2306/2310 5000 -SHRA FEW018CB
Issued Jan-23 @ 05:00 UTC
(2 hours ago)
Valid From Jan-23 @ 06:00 UTC
(an hour ago)
Valid To Jan-24 @ 12:00 UTC
(-1 days ago)
Jan-23 @ 06:00 - Jan-24 @ 12:00
Wind Visibility
10° at 5 knots 10,000+ meters
Clouds
  • Few at 1,800' AGL
Temporary Jan-23 @ 06:00 - Jan-23 @ 10:00
Clouds
  • Few at 1,800' AGL
Conditions
  • Light Rain